sensor_id;sensor_type;location;lat;lon;timestamp;pressure;altitude;pressure_sealevel;temperature;humidity
13314;BME280;6725;48.112;11.604;2023-07-29T00:00:37;93926.19;;;16.75;100.00
13314;BME280;6725;48.112;11.604;2023-07-29T00:03:02;93915.41;;;16.77;100.00
13314;BME280;6725;48.112;11.604;2023-07-29T00:05:27;93927.00;;;16.81;100.00
13314;BME280;6725;48.112;11.604;2023-07-29T00:07:52;93910.19;;;16.79;100.00
13314;BME280;6725;48.112;11.604;2023-07-29T00:10:18;93907.16;;;16.77;100.00
13314;BME280;6725;48.112;11.604;2023-07-29T00:12:43;93903.34;;;16.74;100.00
13314;BME280;6725;48.112;11.604;2023-07-29T00:15:09;93915.34;;;16.71;100.00
13314;BME280;6725;48.112;11.604;2023-07-29T00:17:34;93921.06;;;16.68;100.00
13314;BME280;6725;48.112;11.604;2023-07-29T00:20:00;93918.78;;;16.66;100.00
13314;BME280;6725;48.112;11.604;2023-07-29T00:22:25;93916.50;;;16.65;100.00
13314;BME280;6725;48.112;11.604;2023-07-29T00:24:53;93916.41;;;16.59;100.00
13314;BME280;6725;48.112;11.604;2023-07-29T00:27:23;93909.38;;;16.58;100.00
13314;BME280;6725;48.112;11.604;2023-07-29T00:29:48;93901.59;;;16.57;100.00
13314;BME280;6725;48.112;11.604;2023-07-29T00:32:14;93906.06;;;16.54;100.00
13314;BME280;6725;48.112;11.604;2023-07-29T00:34:39;93903.78;;;16.53;100.00
13314;BME280;6725;48.112;11.604;2023-07-29T00:37:04;93899.22;;;16.50;100.00
13314;BME280;6725;48.112;11.604;2023-07-29T00:39:31;93898.91;;;16.48;100.00
13314;BME280;6725;48.112;11.604;2023-07-29T00:41:57;93897.88;;;16.45;100.00
13314;BME280;6725;48.112;11.604;2023-07-29T00:44:22;93897.88;;;16.45;100.00
13314;BME280;6725;48.112;11.604;2023-07-29T00:46:50;93900.72;;;16.51;100.00
13314;BME280;6725;48.112;11.604;2023-07-29T00:49:15;93899.00;;;16.53;100.00
13314;BME280;6725;48.112;11.604;2023-07-29T00:51:41;93897.09;;;16.59;100.00
13314;BME280;6725;48.112;11.604;2023-07-29T00:54:06;93885.88;;;16.63;100.00
13314;BME280;6725;48.112;11.604;2023-07-29T00:56:32;93888.38;;;16.61;100.00
13314;BME280;6725;48.112;11.604;2023-07-29T00:58:57;93884.91;;;16.66;100.00
13314;BME280;6725;48.112;11.604;2023-07-29T01:01:27;93880.19;;;16.66;100.00
13314;BME280;6725;48.112;11.604;2023-07-29T01:03:52;93882.47;;;16.68;100.00
13314;BME280;6725;48.112;11.604;2023-07-29T01:06:50;93883.03;;;16.72;100.00
13314;BME280;6725;48.112;11.604;2023-07-29T01:12:37;93888.25;;;16.70;100.00
13314;BME280;6725;48.112;11.604;2023-07-29T01:15:15;93888.94;;;16.65;100.00
13314;BME280;6725;48.112;11.604;2023-07-29T01:17:44;93887.41;;;16.64;100.00
13314;BME280;6725;48.112;11.604;2023-07-29T01:20:14;93877.59;;;16.63;100.00
13314;BME280;6725;48.112;11.604;2023-07-29T01:22:41;93884.38;;;16.62;100.00
13314;BME280;6725;48.112;11.604;2023-07-29T01:25:07;93870.31;;;16.60;100.00
13314;BME280;6725;48.112;11.604;2023-07-29T01:27:32;93873.72;;;16.55;100.00
13314;BME280;6725;48.112;11.604;2023-07-29T01:29:58;93886.69;;;16.49;100.00
13314;BME280;6725;48.112;11.604;2023-07-29T01:32:56;93894.09;;;16.42;100.00
13314;BME280;6725;48.112;11.604;2023-07-29T01:35:30;93880.97;;;16.37;100.00
13314;BME280;6725;48.112;11.604;2023-07-29T01:38:05;93872.13;;;16.33;100.00
13314;BME280;6725;48.112;11.604;2023-07-29T01:40:33;93878.13;;;16.32;100.00
13314;BME280;6725;48.112;11.604;2023-07-29T01:42:58;93877.34;;;16.31;100.00
13314;BME280;6725;48.112;11.604;2023-07-29T01:45:24;93882.78;;;16.26;100.00
13314;BME280;6725;48.112;11.604;2023-07-29T01:47:53;93879.25;;;16.25;100.00
13314;BME280;6725;48.112;11.604;2023-07-29T01:50:18;93882.47;;;16.24;100.00
13314;BME280;6725;48.112;11.604;2023-07-29T01:52:44;93877.19;;;16.20;100.00
13314;BME280;6725;48.112;11.604;2023-07-29T01:55:09;93881.19;;;16.19;100.00
13314;BME280;6725;48.112;11.604;2023-07-29T01:57:34;93891.63;;;16.15;100.00
13314;BME280;6725;48.112;11.604;2023-07-29T02:00:00;93884.56;;;16.14;100.00
13314;BME280;6725;48.112;11.604;2023-07-29T02:02:25;93885.63;;;16.17;100.00
13314;BME280;6725;48.112;11.604;2023-07-29T02:04:50;93887.34;;;16.14;100.00
13314;BME280;6725;48.112;11.604;2023-07-29T02:07:18;93887.81;;;16.13;100.00
13314;BME280;6725;48.112;11.604;2023-07-29T02:09:44;93881.81;;;16.14;100.00
13314;BME280;6725;48.112;11.604;2023-07-29T02:12:10;93885.06;;;16.13;100.00
13314;BME280;6725;48.112;11.604;2023-07-29T02:14:35;93885.53;;;16.11;100.00
13314;BME280;6725;48.112;11.604;2023-07-29T02:17:01;93873.00;;;16.10;100.00
13314;BME280;6725;48.112;11.604;2023-07-29T02:19:26;93872.44;;;16.06;100.00
13314;BME280;6725;48.112;11.604;2023-07-29T02:21:51;93875.84;;;16.01;100.00
13314;BME280;6725;48.112;11.604;2023-07-29T02:24:16;93881.38;;;16.01;100.00
13314;BME280;6725;48.112;11.604;2023-07-29T02:26:42;93868.81;;;16.00;100.00
13314;BME280;6725;48.112;11.604;2023-07-29T02:29:07;93876.03;;;15.98;100.00
13314;BME280;6725;48.112;11.604;2023-07-29T02:31:32;93869.22;;;15.93;100.00
13314;BME280;6725;48.112;11.604;2023-07-29T02:34:00;93884.97;;;15.93;100.00
13314;BME280;6725;48.112;11.604;2023-07-29T02:36:25;93880.97;;;15.94;100.00
13314;BME280;6725;48.112;11.604;2023-07-29T02:38:50;93888.97;;;15.92;100.00
13314;BME280;6725;48.112;11.604;2023-07-29T02:41:16;93898.44;;;15.91;100.00
13314;BME280;6725;48.112;11.604;2023-07-29T02:43:48;93896.16;;;15.89;100.00
13314;BME280;6725;48.112;11.604;2023-07-29T02:46:13;93902.44;;;15.90;100.00
13314;BME280;6725;48.112;11.604;2023-07-29T02:48:38;93905.19;;;15.90;100.00
13314;BME280;6725;48.112;11.604;2023-07-29T02:51:04;93902.44;;;15.90;100.00
13314;BME280;6725;48.112;11.604;2023-07-29T02:53:29;93890.66;;;15.89;100.00
13314;BME280;6725;48.112;11.604;2023-07-29T02:55:55;93898.06;;;15.83;100.00
13314;BME280;6725;48.112;11.604;2023-07-29T02:58:20;93900.03;;;15.83;100.00
13314;BME280;6725;48.112;11.604;2023-07-29T03:00:45;93895.00;;;15.81;100.00
13314;BME280;6725;48.112;11.604;2023-07-29T03:03:13;93890.44;;;15.78;100.00
13314;BME280;6725;48.112;11.604;2023-07-29T03:05:39;93889.88;;;15.74;100.00
13314;BME280;6725;48.112;11.604;2023-07-29T03:08:04;93892.34;;;15.72;100.00
13314;BME280;6725;48.112;11.604;2023-07-29T03:10:29;93878.84;;;15.74;100.00
13314;BME280;6725;48.112;11.604;2023-07-29T03:12:55;93890.34;;;15.73;100.00
13314;BME280;6725;48.112;11.604;2023-07-29T03:15:24;93884.84;;;15.73;100.00
13314;BME280;6725;48.112;11.604;2023-07-29T03:17:50;93877.81;;;15.72;100.00
13314;BME280;6725;48.112;11.604;2023-07-29T03:20:16;93878.84;;;15.74;100.00
13314;BME280;6725;48.112;11.604;2023-07-29T03:22:43;93877.81;;;15.72;100.00
13314;BME280;6725;48.112;11.604;2023-07-29T03:25:08;93895.09;;;15.72;100.00
13314;BME280;6725;48.112;11.604;2023-07-29T03:27:34;93892.34;;;15.72;100.00
13314;BME280;6725;48.112;11.604;2023-07-29T03:30:04;93893.28;;;15.69;100.00
13314;BME280;6725;48.112;11.604;2023-07-29T03:32:29;93876.78;;;15.69;100.00
13314;BME280;6725;48.112;11.604;2023-07-29T03:34:55;93872.31;;;15.72;100.00
13314;BME280;6725;48.112;11.604;2023-07-29T03:37:20;93864.25;;;15.68;100.00
13314;BME280;6725;48.112;11.604;2023-07-29T03:39:46;93874.31;;;15.71;100.00
13314;BME280;6725;48.112;11.604;2023-07-29T03:42:12;93869.56;;;15.72;100.00
13314;BME280;6725;48.112;11.604;2023-07-29T03:44:37;93871.06;;;15.73;100.00
13314;BME280;6725;48.112;11.604;2023-07-29T03:47:05;93871.38;;;15.75;100.00
13314;BME280;6725;48.112;11.604;2023-07-29T03:49:30;93874.53;;;15.82;100.00
13314;BME280;6725;48.112;11.604;2023-07-29T03:51:56;93873.56;;;15.85;100.00
13314;BME280;6725;48.112;11.604;2023-07-29T03:54:21;93878.41;;;15.90;100.00
13314;BME280;6725;48.112;11.604;2023-07-29T03:56:46;93875.09;;;16.01;100.00
13314;BME280;6725;48.112;11.604;2023-07-29T03:59:12;93873.09;;;16.01;100.00
13314;BME280;6725;48.112;11.604;2023-07-29T04:01:37;93875.75;;;16.10;100.00
13314;BME280;6725;48.112;11.604;2023-07-29T04:04:02;93871.66;;;16.20;100.00
13314;BME280;6725;48.112;11.604;2023-07-29T04:06:28;93874.31;;;16.29;100.00
13314;BME280;6725;48.112;11.604;2023-07-29T04:08:53;93879.81;;;16.29;100.00
13314;BME280;6725;48.112;11.604;2023-07-29T04:11:18;93870.59;;;16.32;100.00
13314;BME280;6725;48.112;11.604;2023-07-29T04:13:44;93873.34;;;16.32;100.00
13314;BME280;6725;48.112;11.604;2023-07-29T04:16:09;93864.81;;;16.30;100.00
13314;BME280;6725;48.112;11.604;2023-07-29T04:18:34;93865.56;;;16.31;100.00
13314;BME280;6725;48.112;11.604;2023-07-29T04:21:00;93863.28;;;16.29;100.00
13314;BME280;6725;48.112;11.604;2023-07-29T04:23:26;93858.34;;;16.33;100.00
13314;BME280;6725;48.112;11.604;2023-07-29T04:25:51;93846.94;;;16.40;100.00
13314;BME280;6725;48.112;11.604;2023-07-29T04:28:17;93851.25;;;16.42;100.00
13314;BME280;6725;48.112;11.604;2023-07-29T04:30:42;93844.28;;;16.46;100.00
13314;BME280;6725;48.112;11.604;2023-07-29T04:33:07;93856.38;;;16.49;100.00
13314;BME280;6725;48.112;11.604;2023-07-29T04:35:33;93843.22;;;16.58;100.00
13314;BME280;6725;48.112;11.604;2023-07-29T04:37:58;93832.44;;;16.75;100.00
13314;BME280;6725;48.112;11.604;2023-07-29T04:40:23;93837.00;;;17.18;100.00
13314;BME280;6725;48.112;11.604;2023-07-29T04:42:50;93835.34;;;17.46;100.00
13314;BME280;6725;48.112;11.604;2023-07-29T04:45:16;93825.78;;;17.67;100.00
13314;BME280;6725;48.112;11.604;2023-07-29T04:47:41;93838.19;;;17.77;100.00
13314;BME280;6725;48.112;11.604;2023-07-29T04:50:07;93829.59;;;18.26;100.00
13314;BME280;6725;48.112;11.604;2023-07-29T04:52:32;93812.59;;;18.75;100.00
13314;BME280;6725;48.112;11.604;2023-07-29T04:54:58;93827.50;;;18.83;100.00
13314;BME280;6725;48.112;11.604;2023-07-29T04:57:23;93833.81;;;19.31;100.00
13314;BME280;6725;48.112;11.604;2023-07-29T04:59:49;93860.88;;;19.69;100.00
13314;BME280;6725;48.112;11.604;2023-07-29T05:02:14;93850.44;;;20.23;100.00
13314;BME280;6725;48.112;11.604;2023-07-29T05:04:40;93739.19;;;20.76;100.00
13314;BME280;6725;48.112;11.604;2023-07-29T05:07:05;93719.84;;;21.22;100.00
13314;BME280;6725;48.112;11.604;2023-07-29T05:09:31;93922.75;;;21.51;100.00
13314;BME280;6725;48.112;11.604;2023-07-29T05:11:56;94159.22;;;22.08;100.00
13314;BME280;6725;48.112;11.604;2023-07-29T05:14:21;94384.31;;;22.28;100.00
13314;BME280;6725;48.112;11.604;2023-07-29T05:16:47;94474.47;;;21.89;100.00
13314;BME280;6725;48.112;11.604;2023-07-29T05:19:13;94453.81;;;21.64;100.00
13314;BME280;6725;48.112;11.604;2023-07-29T05:21:38;94427.16;;;21.83;100.00
13314;BME280;6725;48.112;11.604;2023-07-29T05:24:04;94474.16;;;21.81;100.00
13314;BME280;6725;48.112;11.604;2023-07-29T05:26:29;94472.69;;;21.49;100.00
13314;BME280;6725;48.112;11.604;2023-07-29T05:28:55;94455.50;;;21.45;100.00
13314;BME280;6725;48.112;11.604;2023-07-29T05:31:21;94439.09;;;21.47;100.00
13314;BME280;6725;48.112;11.604;2023-07-29T05:33:46;94434.84;;;21.63;100.00
13314;BME280;6725;48.112;11.604;2023-07-29T05:36:12;94450.19;;;21.89;100.00
13314;BME280;6725;48.112;11.604;2023-07-29T05:38:37;94469.59;;;21.78;100.00
13314;BME280;6725;48.112;11.604;2023-07-29T05:41:02;94462.44;;;21.66;100.00
13314;BME280;6725;48.112;11.604;2023-07-29T05:43:28;94440.16;;;21.55;100.00
13314;BME280;6725;48.112;11.604;2023-07-29T05:45:53;94421.97;;;21.54;100.00
13314;BME280;6725;48.112;11.604;2023-07-29T05:48:21;94411.50;;;21.38;100.00
13314;BME280;6725;48.112;11.604;2023-07-29T05:50:47;94375.19;;;21.47;100.00
13314;BME280;6725;48.112;11.604;2023-07-29T05:53:14;94369.66;;;21.58;100.00
13314;BME280;6725;48.112;11.604;2023-07-29T05:55:39;94365.84;;;21.50;100.00
13314;BME280;6725;48.112;11.604;2023-07-29T05:58:04;94349.59;;;21.32;100.00
13314;BME280;6725;48.112;11.604;2023-07-29T06:00:30;94327.97;;;21.05;100.00
13314;BME280;6725;48.112;11.604;2023-07-29T06:02:55;94305.91;;;20.85;100.00
13314;BME280;6725;48.112;11.604;2023-07-29T06:05:20;94285.06;;;20.64;100.00
13314;BME280;6725;48.112;11.604;2023-07-29T06:07:46;94187.81;;;20.37;100.00
13314;BME280;6725;48.112;11.604;2023-07-29T06:10:14;94003.75;;;19.81;100.00
13314;BME280;6725;48.112;11.604;2023-07-29T06:12:42;93782.13;;;19.11;100.00
13314;BME280;6725;48.112;11.604;2023-07-29T06:15:08;93752.38;;;18.48;100.00
13314;BME280;6725;48.112;11.604;2023-07-29T06:17:34;93808.59;;;18.08;100.00
13314;BME280;6725;48.112;11.604;2023-07-29T06:19:59;93846.84;;;17.90;100.00
13314;BME280;6725;48.112;11.604;2023-07-29T06:22:24;93851.84;;;17.86;100.00
13314;BME280;6725;48.112;11.604;2023-07-29T06:24:50;93846.75;;;17.79;100.00
13314;BME280;6725;48.112;11.604;2023-07-29T06:27:15;93865.53;;;17.75;100.00
13314;BME280;6725;48.112;11.604;2023-07-29T06:29:40;93845.97;;;17.78;100.00
13314;BME280;6725;48.112;11.604;2023-07-29T06:32:06;93837.06;;;17.89;100.00
13314;BME280;6725;48.112;11.604;2023-07-29T06:34:31;93835.22;;;18.06;100.00
13314;BME280;6725;48.112;11.604;2023-07-29T06:36:57;93910.19;;;18.19;100.00
13314;BME280;6725;48.112;11.604;2023-07-29T06:39:22;93917.56;;;18.27;100.00
13314;BME280;6725;48.112;11.604;2023-07-29T06:41:47;93915.88;;;18.35;100.00
13314;BME280;6725;48.112;11.604;2023-07-29T06:44:13;93963.91;;;18.38;100.00
13314;BME280;6725;48.112;11.604;2023-07-29T06:46:39;93955.38;;;18.36;100.00
13314;BME280;6725;48.112;11.604;2023-07-29T06:49:05;93964.78;;;18.29;100.00
13314;BME280;6725;48.112;11.604;2023-07-29T06:51:30;93987.84;;;18.21;100.00
13314;BME280;6725;48.112;11.604;2023-07-29T06:53:59;93999.09;;;18.17;100.00
13314;BME280;6725;48.112;11.604;2023-07-29T06:56:24;94000.28;;;18.11;100.00
13314;BME280;6725;48.112;11.604;2023-07-29T06:58:50;94003.19;;;18.02;100.00
13314;BME280;6725;48.112;11.604;2023-07-29T07:01:15;93999.13;;;17.97;100.00
13314;BME280;6725;48.112;11.604;2023-07-29T07:03:40;94020.22;;;17.95;100.00
13314;BME280;6725;48.112;11.604;2023-07-29T07:06:06;93998.53;;;17.88;100.00
13314;BME280;6725;48.112;11.604;2023-07-29T07:08:31;94009.28;;;17.86;100.00
13314;BME280;6725;48.112;11.604;2023-07-29T07:10:56;93995.75;;;17.88;100.00
13314;BME280;6725;48.112;11.604;2023-07-29T07:13:22;93949.75;;;17.85;100.00
13314;BME280;6725;48.112;11.604;2023-07-29T07:15:47;93944.78;;;17.89;100.00
13314;BME280;6725;48.112;11.604;2023-07-29T07:18:13;93953.06;;;17.89;100.00
13314;BME280;6725;48.112;11.604;2023-07-29T07:20:38;93957.88;;;17.94;100.00
13314;BME280;6725;48.112;11.604;2023-07-29T07:23:04;93958.44;;;17.98;100.00
13314;BME280;6725;48.112;11.604;2023-07-29T07:25:31;93955.25;;;18.05;100.00
13314;BME280;6725;48.112;11.604;2023-07-29T07:27:56;93946.00;;;18.08;100.00
13314;BME280;6725;48.112;11.604;2023-07-29T07:30:21;93948.63;;;18.17;100.00
13314;BME280;6725;48.112;11.604;2023-07-29T07:32:47;93940.03;;;18.15;100.00
13314;BME280;6725;48.112;11.604;2023-07-29T07:35:12;93935.28;;;18.15;100.00
13314;BME280;6725;48.112;11.604;2023-07-29T07:37:38;93927.88;;;17.81;100.00
13314;BME280;6725;48.112;11.604;2023-07-29T07:40:03;93922.56;;;17.78;100.00
13314;BME280;6725;48.112;11.604;2023-07-29T07:42:29;93917.53;;;18.02;100.00
13314;BME280;6725;48.112;11.604;2023-07-29T07:44:54;93913.66;;;18.14;100.00
13314;BME280;6725;48.112;11.604;2023-07-29T07:47:19;93908.38;;;18.16;100.00
13314;BME280;6725;48.112;11.604;2023-07-29T07:49:45;93886.28;;;18.16;100.00
13314;BME280;6725;48.112;11.604;2023-07-29T07:52:10;93891.06;;;18.15;100.00
13314;BME280;6725;48.112;11.604;2023-07-29T07:54:35;93868.19;;;18.15;100.00
13314;BME280;6725;48.112;11.604;2023-07-29T07:57:01;93860.91;;;18.17;100.00
13314;BME280;6725;48.112;11.604;2023-07-29T07:59:26;93869.69;;;18.16;100.00
13314;BME280;6725;48.112;11.604;2023-07-29T08:01:51;93875.59;;;18.29;100.00
13314;BME280;6725;48.112;11.604;2023-07-29T08:04:17;93876.97;;;18.39;100.00
13314;BME280;6725;48.112;11.604;2023-07-29T08:06:43;93872.28;;;18.50;100.00
13314;BME280;6725;48.112;11.604;2023-07-29T08:09:08;93867.84;;;18.64;100.00
13314;BME280;6725;48.112;11.604;2023-07-29T08:11:33;93869.38;;;18.65;100.00
13314;BME280;6725;48.112;11.604;2023-07-29T08:13:59;93870.00;;;18.80;100.00
13314;BME280;6725;48.112;11.604;2023-07-29T08:16:24;93873.28;;;18.84;100.00
13314;BME280;6725;48.112;11.604;2023-07-29T08:18:49;93867.19;;;19.16;100.00
13314;BME280;6725;48.112;11.604;2023-07-29T08:21:15;93864.00;;;19.29;100.00
13314;BME280;6725;48.112;11.604;2023-07-29T08:23:40;93862.81;;;19.52;100.00
13314;BME280;6725;48.112;11.604;2023-07-29T08:26:06;93855.34;;;19.69;100.00
13314;BME280;6725;48.112;11.604;2023-07-29T08:28:33;93854.34;;;19.72;100.00
13314;BME280;6725;48.112;11.604;2023-07-29T08:30:58;93836.78;;;20.03;100.00
13314;BME280;6725;48.112;11.604;2023-07-29T08:33:24;93834.28;;;20.21;100.00
13314;BME280;6725;48.112;11.604;2023-07-29T08:35:50;93825.47;;;20.39;100.00
13314;BME280;6725;48.112;11.604;2023-07-29T08:38:15;93813.34;;;20.64;100.00
13314;BME280;6725;48.112;11.604;2023-07-29T08:40:45;93833.03;;;20.72;100.00
13314;BME280;6725;48.112;11.604;2023-07-29T08:43:16;93842.63;;;20.65;100.00
13314;BME280;6725;48.112;11.604;2023-07-29T08:45:44;93847.16;;;20.68;100.00
13314;BME280;6725;48.112;11.604;2023-07-29T08:48:10;93857.75;;;20.64;100.00
13314;BME280;6725;48.112;11.604;2023-07-29T08:50:36;93865.31;;;20.69;100.00
13314;BME280;6725;48.112;11.604;2023-07-29T08:53:05;93845.16;;;20.58;100.00
13314;BME280;6725;48.112;11.604;2023-07-29T08:55:32;93828.50;;;20.63;100.00
13314;BME280;6725;48.112;11.604;2023-07-29T08:57:59;93816.13;;;20.70;100.00
13314;BME280;6725;48.112;11.604;2023-07-29T09:00:25;93795.94;;;20.64;100.00
13314;BME280;6725;48.112;11.604;2023-07-29T09:02:51;93763.66;;;20.72;100.00
13314;BME280;6725;48.112;11.604;2023-07-29T09:05:16;93730.03;;;20.97;100.00
13314;BME280;6725;48.112;11.604;2023-07-29T09:07:42;93702.00;;;21.06;100.00
13314;BME280;6725;48.112;11.604;2023-07-29T09:10:09;93672.72;;;21.46;100.00
13314;BME280;6725;48.112;11.604;2023-07-29T09:12:38;93663.41;;;21.78;100.00
13314;BME280;6725;48.112;11.604;2023-07-29T09:15:03;93645.97;;;22.07;100.00
13314;BME280;6725;48.112;11.604;2023-07-29T09:17:32;93609.03;;;22.79;100.00
13314;BME280;6725;48.112;11.604;2023-07-29T09:19:57;93613.13;;;23.34;100.00
13314;BME280;6725;48.112;11.604;2023-07-29T09:22:23;93769.28;;;24.34;100.00
13314;BME280;6725;48.112;11.604;2023-07-29T09:24:49;94066.25;;;25.29;100.00
13314;BME280;6725;48.112;11.604;2023-07-29T09:27:28;94497.66;;;26.44;100.00
13314;BME280;6725;48.112;11.604;2023-07-29T09:29:56;94699.56;;;27.42;100.00
13314;BME280;6725;48.112;11.604;2023-07-29T09:32:23;94810.25;;;27.89;100.00
13314;BME280;6725;48.112;11.604;2023-07-29T09:34:49;94841.53;;;28.17;100.00
13314;BME280;6725;48.112;11.604;2023-07-29T09:37:20;94873.59;;;28.46;100.00
13314;BME280;6725;48.112;11.604;2023-07-29T09:39:47;94912.91;;;29.02;100.00
13314;BME280;6725;48.112;11.604;2023-07-29T09:42:20;94925.31;;;29.38;100.00
13314;BME280;6725;48.112;11.604;2023-07-29T09:44:48;94930.03;;;28.98;100.00
13314;BME280;6725;48.112;11.604;2023-07-29T09:47:21;94934.75;;;29.40;100.00
13314;BME280;6725;48.112;11.604;2023-07-29T09:49:46;94955.91;;;30.30;100.00
13314;BME280;6725;48.112;11.604;2023-07-29T09:52:14;94962.53;;;30.20;100.00
13314;BME280;6725;48.112;11.604;2023-07-29T09:54:42;94971.13;;;29.70;100.00
13314;BME280;6725;48.112;11.604;2023-07-29T09:57:07;94959.09;;;29.38;100.00
13314;BME280;6725;48.112;11.604;2023-07-29T09:59:36;94964.66;;;30.14;100.00
13314;BME280;6725;48.112;11.604;2023-07-29T10:02:01;94964.47;;;30.25;100.00
13314;BME280;6725;48.112;11.604;2023-07-29T10:04:27;94961.19;;;29.82;100.00
13314;BME280;6725;48.112;11.604;2023-07-29T10:06:54;94961.41;;;29.97;100.00
13314;BME280;6725;48.112;11.604;2023-07-29T10:09:20;94961.88;;;30.27;100.00
13314;BME280;6725;48.112;11.604;2023-07-29T10:11:45;94958.28;;;30.39;100.00
13314;BME280;6725;48.112;11.604;2023-07-29T10:14:11;94963.06;;;30.18;100.00
13314;BME280;6725;48.112;11.604;2023-07-29T10:16:36;94959.03;;;30.53;100.00
13314;BME280;6725;48.112;11.604;2023-07-29T10:19:04;94951.81;;;30.65;100.00
13314;BME280;6725;48.112;11.604;2023-07-29T10:21:29;94959.34;;;30.10;100.00
13314;BME280;6725;48.112;11.604;2023-07-29T10:24:00;94961.41;;;30.49;100.00
13314;BME280;6725;48.112;11.604;2023-07-29T10:26:28;94949.81;;;30.26;100.00
13314;BME280;6725;48.112;11.604;2023-07-29T10:28:57;94943.00;;;31.15;100.00
13314;BME280;6725;48.112;11.604;2023-07-29T10:31:27;94949.72;;;31.66;100.00
13314;BME280;6725;48.112;11.604;2023-07-29T10:33:54;94932.78;;;32.50;100.00
13314;BME280;6725;48.112;11.604;2023-07-29T10:36:20;94940.28;;;32.40;100.00
13314;BME280;6725;48.112;11.604;2023-07-29T10:38:45;94934.63;;;32.40;100.00
13314;BME280;6725;48.112;11.604;2023-07-29T10:41:10;94936.53;;;32.45;100.00
13314;BME280;6725;48.112;11.604;2023-07-29T10:43:37;94925.31;;;32.60;100.00
13314;BME280;6725;48.112;11.604;2023-07-29T10:46:16;94939.56;;;32.47;100.00
13314;BME280;6725;48.112;11.604;2023-07-29T10:51:23;94928.28;;;31.50;100.00
13314;BME280;6725;48.112;11.604;2023-07-29T10:54:09;94921.66;;;31.06;100.00
13314;BME280;6725;48.112;11.604;2023-07-29T10:56:41;94921.31;;;30.30;100.00
13314;BME280;6725;48.112;11.604;2023-07-29T11:01:56;94936.56;;;29.25;100.00
13314;BME280;6725;48.112;11.604;2023-07-29T11:04:27;94914.16;;;30.29;100.00
13314;BME280;6725;48.112;11.604;2023-07-29T11:17:39;94914.59;;;29.68;100.00
13314;BME280;6725;48.112;11.604;2023-07-29T11:20:05;94910.91;;;29.86;100.00
13314;BME280;6725;48.112;11.604;2023-07-29T11:22:33;94916.13;;;29.82;100.00
13314;BME280;6725;48.112;11.604;2023-07-29T11:24:58;94917.63;;;29.83;100.00
13314;BME280;6725;48.112;11.604;2023-07-29T11:27:23;94919.84;;;29.14;100.00
13314;BME280;6725;48.112;11.604;2023-07-29T11:29:49;94931.75;;;28.33;100.00
13314;BME280;6725;48.112;11.604;2023-07-29T11:32:15;94940.38;;;27.68;100.00
13314;BME280;6725;48.112;11.604;2023-07-29T11:34:41;94942.75;;;26.99;100.00
13314;BME280;6725;48.112;11.604;2023-07-29T11:37:10;94945.97;;;26.79;100.00
13314;BME280;6725;48.112;11.604;2023-07-29T11:39:43;94935.63;;;27.33;100.00
13314;BME280;6725;48.112;11.604;2023-07-29T11:42:13;94925.84;;;28.55;100.00
13314;BME280;6725;48.112;11.604;2023-07-29T11:44:39;94931.22;;;28.53;100.00
13314;BME280;6725;48.112;11.604;2023-07-29T11:47:09;94943.13;;;28.96;100.00
13314;BME280;6725;48.112;11.604;2023-07-29T11:49:35;94935.88;;;29.19;100.00
13314;BME280;6725;48.112;11.604;2023-07-29T11:52:02;94938.44;;;29.04;100.00
13314;BME280;6725;48.112;11.604;2023-07-29T11:54:28;94940.69;;;28.31;100.00
13314;BME280;6725;48.112;11.604;2023-07-29T11:56:53;94936.44;;;28.24;100.00
13314;BME280;6725;48.112;11.604;2023-07-29T11:59:19;94933.75;;;27.65;100.00
13314;BME280;6725;48.112;11.604;2023-07-29T12:01:45;94935.28;;;27.42;100.00
13314;BME280;6725;48.112;11.604;2023-07-29T12:04:10;94935.09;;;27.35;100.00
13314;BME280;6725;48.112;11.604;2023-07-29T12:06:37;94920.91;;;27.51;100.00
13314;BME280;6725;48.112;11.604;2023-07-29T12:09:03;94919.66;;;27.47;100.00
13314;BME280;6725;48.112;11.604;2023-07-29T12:11:28;94914.69;;;27.34;100.00
13314;BME280;6725;48.112;11.604;2023-07-29T12:13:54;94915.22;;;27.33;100.00
13314;BME280;6725;48.112;11.604;2023-07-29T12:16:19;94907.00;;;27.40;100.00
13314;BME280;6725;48.112;11.604;2023-07-29T12:18:45;94913.41;;;27.35;100.00
13314;BME280;6725;48.112;11.604;2023-07-29T12:21:10;94900.03;;;27.47;100.00
13314;BME280;6725;48.112;11.604;2023-07-29T12:23:36;94902.66;;;27.39;100.00
13314;BME280;6725;48.112;11.604;2023-07-29T12:26:01;94895.31;;;27.36;100.00
13314;BME280;6725;48.112;11.604;2023-07-29T12:28:26;94885.53;;;27.43;100.00
13314;BME280;6725;48.112;11.604;2023-07-29T12:30:56;94892.81;;;27.75;100.00
13314;BME280;6725;48.112;11.604;2023-07-29T12:33:37;94893.63;;;27.94;100.00
13314;BME280;6725;48.112;11.604;2023-07-29T12:36:07;94898.53;;;28.12;100.00
13314;BME280;6725;48.112;11.604;2023-07-29T12:38:33;94890.16;;;27.88;100.00
13314;BME280;6725;48.112;11.604;2023-07-29T12:40:58;94886.03;;;27.65;100.00
13314;BME280;6725;48.112;11.604;2023-07-29T12:43:25;94875.16;;;27.80;100.00
13314;BME280;6725;48.112;11.604;2023-07-29T12:45:50;94868.59;;;27.72;100.00
13314;BME280;6725;48.112;11.604;2023-07-29T12:48:16;94864.75;;;27.99;100.00
13314;BME280;6725;48.112;11.604;2023-07-29T12:50:41;94861.63;;;27.84;100.00
13314;BME280;6725;48.112;11.604;2023-07-29T12:53:08;94868.50;;;27.83;100.00
13314;BME280;6725;48.112;11.604;2023-07-29T12:55:33;94887.59;;;27.66;100.00
13314;BME280;6725;48.112;11.604;2023-07-29T12:57:59;94913.50;;;27.24;100.00
13314;BME280;6725;48.112;11.604;2023-07-29T13:00:24;94934.25;;;26.29;100.00
13314;BME280;6725;48.112;11.604;2023-07-29T13:02:50;94895.28;;;25.69;100.00
13314;BME280;6725;48.112;11.604;2023-07-29T13:05:16;94885.94;;;25.44;100.00